Historyczne dane pomiarowe

Dodano dane terminowe – wersja testowa.

Dane z okresu 1951-2019

Wersja bazy: 1.34 [2019-03-16, lista zmian], aktualizacja planowana na 2019-04-15

Dane meteo z obszaru Polski uzyskane na podstawie danych udostępnionych przez Instytut Meteorologii i Gospodarki Wodnej – Państwowy Instytut Badawczy.

 

Wybierz Datę:    

       

TemperaturaWilgotnośćZachmurzenieWiatrCiśnienieWidzialnośćZjawiska
 Data    tng td wb rh cc ccl cl cm ch dir g1 g2 mslp ppp      
1973-05-11 00:00:00 1.2--- 1.2 1.2100wxwx0wx--- 834.9 0.0---wxw1
1973-05-11 01:00:00 1.0------wxwx5wx--- 834.5----wxw1
1973-05-11 02:00:00 0.6------wxwx7wx--- 834.5----wxw1
1973-05-11 03:00:00 0.8--- 0.8 0.8100wxwx4wx--- 834.6----wxw1
1973-05-11 04:00:00 0.5------wxwx5wx--- 834.8----wxw1
1973-05-11 05:00:00 1.0------wxwx6wx--- 835.0----wxw1
1973-05-11 06:00:00 1.0--- 1.0 1.0100wxwx0wx--- 835.1 0.0---wxw1
1973-05-11 07:00:00 1.2------wxwx0wx--- 835.0----wxw1
1973-05-11 08:00:00 1.6------wxwx0wx--- 835.1----wxw1
1973-05-11 09:00:00 0.8--- 0.8 0.8100wxwx5wx--- 835.2----wxw1
1973-05-11 10:00:00 0.2------wxwx4wx--- 835.5----wxw1
1973-05-11 11:00:00 0.2------wxwx4wx--- 835.8----wxw1
1973-05-11 12:00:00 0.2--- 0.2 0.2100wxwx5wx--- 835.5 2.6---wxw1
1973-05-11 13:00:00 -1.2------wxwx5wx--- 835.7----wxw1
1973-05-11 14:00:00 -3.0------wxwxwxwx8wx--- 835.4----wxw1
1973-05-11 15:00:00 -3.0--- -4.0 -3.293wxwxwx14wx--- 835.7----wxw1
1973-05-11 16:00:00 -1.4------wxwxwxwxwx18wx--- 836.1----wx
1973-05-11 17:00:00 -1.2------wxwxwxwxwx19wx--- 836.8----wx
1973-05-11 18:00:00 -1.4--- -2.4 -1.891wxwxwxwxwx33wx--- 836.5 0.0---wxw1
1973-05-11 19:00:00 -1.8------wxwxwxwx22wx--- 837.0----wx
1973-05-11 20:00:00 -2.4------wxwxwx24wx--- 837.4----wx
1973-05-11 21:00:00 -3.0--- -3.4 -3.097wxwxwx25wx--- 837.5----wx
1973-05-11 22:00:00 -3.0------wxwx22wx--- 838.1----wxw1
1973-05-11 23:00:00 -3.2------wxwx19wx--- 838.1----wxw1

 

Źródłem pochodzenia danych jest Instytut Meteorologii i Gospodarki Wodnej – Państwowy Instytut Badawczy. Dane Instytutu Meteorologii i Gospodarki Wodnej – Państwowego Instytutu Badawczego zostały przetworzone.

Dane źródłowe można odnaleźć na stronie https://dane.imgw.pl